createdAt,value
2023-05-13T00:04:18.020Z,10.13
2023-05-13T00:09:19.452Z,10.13
2023-05-13T00:14:20.881Z,9.83
2023-05-13T00:19:22.300Z,11.40
2023-05-13T00:24:23.706Z,10.63
2023-05-13T00:29:25.109Z,9.33
2023-05-13T00:34:26.539Z,9.73
2023-05-13T00:39:27.938Z,11.40
2023-05-13T00:44:29.343Z,8.93
2023-05-13T00:49:30.734Z,10.60
2023-05-13T00:54:32.132Z,9.83
2023-05-13T00:59:33.579Z,9.60
2023-05-13T01:04:34.971Z,8.40
2023-05-13T01:09:36.385Z,9.27
2023-05-13T01:14:37.816Z,9.50
2023-05-13T01:19:39.254Z,8.77
2023-05-13T01:24:40.726Z,8.70
2023-05-13T01:29:42.192Z,10.03
2023-05-13T01:34:43.596Z,10.07
2023-05-13T01:39:45.007Z,9.10
2023-05-13T01:44:46.406Z,9.73
2023-05-13T01:49:47.824Z,8.60
2023-05-13T01:54:49.340Z,8.43
2023-05-13T01:59:50.768Z,8.10
2023-05-13T02:04:52.162Z,8.50
2023-05-13T02:09:53.565Z,8.20
2023-05-13T02:14:54.968Z,8.03
2023-05-13T02:19:56.455Z,8.27
2023-05-13T02:24:57.864Z,8.37
2023-05-13T02:29:59.262Z,7.63
2023-05-13T02:35:00.677Z,8.13
2023-05-13T02:40:02.082Z,8.57
2023-05-13T02:45:03.488Z,9.13
2023-05-13T02:50:04.920Z,8.00
2023-05-13T02:55:06.376Z,8.07
2023-05-13T03:00:07.827Z,8.40
2023-05-13T03:05:09.241Z,8.80
2023-05-13T03:10:10.659Z,8.40
2023-05-13T03:15:12.068Z,7.43
2023-05-13T03:20:13.473Z,8.77
2023-05-13T03:25:14.882Z,8.23
2023-05-13T03:30:16.294Z,9.27
2023-05-13T03:35:17.675Z,8.33
2023-05-13T03:40:19.272Z,9.10
2023-05-13T03:45:20.813Z,8.47
2023-05-13T03:50:22.342Z,8.97
2023-05-13T03:55:23.922Z,8.10
2023-05-13T04:00:25.337Z,9.93
2023-05-13T04:05:26.720Z,8.37
2023-05-13T04:10:28.135Z,8.53
2023-05-13T04:15:29.523Z,8.90
2023-05-13T04:20:30.988Z,7.60
2023-05-13T04:25:32.391Z,9.20
2023-05-13T04:30:33.794Z,7.83
2023-05-13T04:35:35.209Z,8.73
2023-05-13T04:40:36.604Z,6.77
2023-05-13T04:45:37.999Z,8.43
2023-05-13T04:50:39.395Z,9.27
2023-05-13T04:55:41.298Z,8.67
2023-05-13T05:00:42.698Z,8.47
2023-05-13T05:05:44.114Z,9.07
2023-05-13T05:10:45.515Z,8.43
2023-05-13T05:15:46.920Z,8.80
2023-05-13T05:20:48.322Z,10.30
2023-05-13T05:25:55.153Z,9.10
2023-05-13T05:31:02.133Z,9.63
2023-05-13T05:36:03.737Z,9.10
2023-05-13T05:41:05.184Z,9.07
2023-05-13T05:46:06.607Z,10.00
2023-05-13T05:51:08.083Z,8.63
2023-05-13T05:56:09.483Z,8.40
2023-05-13T06:01:10.877Z,15.20
2023-05-13T06:06:12.262Z,10.10
2023-05-13T06:11:13.676Z,8.90
2023-05-13T06:16:15.162Z,7.87
2023-05-13T06:21:16.634Z,9.40
2023-05-13T06:26:18.038Z,9.30
2023-05-13T06:31:19.490Z,8.50
2023-05-13T06:36:20.971Z,9.37
2023-05-13T06:41:22.378Z,9.90
2023-05-13T06:46:23.834Z,9.27
2023-05-13T06:51:25.238Z,9.17
2023-05-13T06:56:26.644Z,9.13
2023-05-13T07:01:28.274Z,9.30
2023-05-13T07:06:29.714Z,8.37
2023-05-13T07:11:31.133Z,9.63
2023-05-13T07:16:32.536Z,9.30
2023-05-13T07:21:33.945Z,9.13
2023-05-13T07:26:35.347Z,9.70
2023-05-13T07:31:36.746Z,8.80
2023-05-13T07:36:38.184Z,8.73
2023-05-13T07:41:39.615Z,8.57
2023-05-13T07:46:41.065Z,8.50
2023-05-13T07:51:42.508Z,8.50
2023-05-13T07:56:43.943Z,8.80
2023-05-13T08:01:46.393Z,6.97
2023-05-13T08:06:47.810Z,7.67
2023-05-13T08:11:49.313Z,7.97
2023-05-13T08:16:50.809Z,7.40
2023-05-13T08:21:52.299Z,7.43
2023-05-13T08:26:53.700Z,6.70
2023-05-13T08:31:55.134Z,7.80
2023-05-13T08:36:56.581Z,7.37
2023-05-13T08:41:57.968Z,7.50
2023-05-13T08:46:59.361Z,7.90
2023-05-13T08:52:00.750Z,7.60
2023-05-13T08:57:02.178Z,7.23
2023-05-13T09:02:03.588Z,7.17
2023-05-13T09:07:04.984Z,7.03
2023-05-13T09:12:06.378Z,7.13
2023-05-13T09:17:07.797Z,6.37
2023-05-13T09:22:09.231Z,7.03
2023-05-13T09:27:10.627Z,6.90
2023-05-13T09:32:12.127Z,7.23
2023-05-13T09:37:13.528Z,10.20
2023-05-13T09:42:14.943Z,7.10
2023-05-13T09:47:16.610Z,9.13
2023-05-13T09:52:18.096Z,12.60
2023-05-13T09:57:19.527Z,8.50
2023-05-13T10:02:20.918Z,8.67
2023-05-13T10:07:22.313Z,6.87
2023-05-13T10:12:23.714Z,6.37
2023-05-13T10:17:25.118Z,7.63
2023-05-13T10:22:26.529Z,6.57
2023-05-13T10:27:27.968Z,8.13
2023-05-13T10:32:29.399Z,6.57
2023-05-13T10:37:30.820Z,6.00
2023-05-13T10:42:32.252Z,5.93
2023-05-13T10:47:33.754Z,5.57
2023-05-13T10:52:35.306Z,6.30
2023-05-13T10:57:36.704Z,7.17
2023-05-13T11:02:38.202Z,6.20
2023-05-13T11:07:39.656Z,6.50
2023-05-13T11:12:41.062Z,6.10
2023-05-13T11:17:42.551Z,6.57
2023-05-13T11:22:43.976Z,5.30
2023-05-13T11:27:45.380Z,6.23
2023-05-13T11:32:46.834Z,5.23
2023-05-13T11:37:48.299Z,5.90
2023-05-13T11:42:49.700Z,7.93
2023-05-13T11:47:51.153Z,6.80
2023-05-13T11:52:52.636Z,6.57
2023-05-13T11:57:54.078Z,6.20
2023-05-13T12:02:55.606Z,6.53
2023-05-13T12:07:57.100Z,5.40
2023-05-13T12:12:58.519Z,6.70
2023-05-13T12:17:59.948Z,7.80
2023-05-13T12:23:01.421Z,6.50
2023-05-13T12:28:02.831Z,5.87
2023-05-13T12:33:04.417Z,7.20
2023-05-13T12:38:06.045Z,5.00
2023-05-13T12:43:07.420Z,5.23
2023-05-13T12:48:08.864Z,5.07
2023-05-13T12:53:10.318Z,5.30
2023-05-13T12:58:11.732Z,5.80
2023-05-13T13:03:13.214Z,4.77
2023-05-13T13:08:14.723Z,5.83
2023-05-13T13:13:16.131Z,5.33
2023-05-13T13:18:17.523Z,5.37
2023-05-13T13:23:18.924Z,6.10
2023-05-13T13:28:20.339Z,5.23
2023-05-13T13:33:21.756Z,4.80
2023-05-13T13:38:23.184Z,5.57
2023-05-13T13:43:24.590Z,7.80
2023-05-13T13:48:25.983Z,4.03
2023-05-13T13:53:27.379Z,5.33
2023-05-13T13:58:28.780Z,5.30
2023-05-13T14:03:30.335Z,6.33
2023-05-13T14:08:31.794Z,8.17
2023-05-13T14:13:33.230Z,7.63
2023-05-13T14:18:34.681Z,5.10
2023-05-13T14:23:36.094Z,6.13
2023-05-13T14:28:37.487Z,5.60
2023-05-13T14:33:38.891Z,8.23
2023-05-13T14:38:40.298Z,5.90
2023-05-13T14:43:41.683Z,6.00
2023-05-13T14:48:43.091Z,6.43
2023-05-13T14:53:44.486Z,5.83
2023-05-13T14:58:45.880Z,6.17
2023-05-13T15:03:47.298Z,6.70
2023-05-13T15:08:48.707Z,7.40
2023-05-13T15:13:50.124Z,6.37
2023-05-13T15:18:51.574Z,5.83
2023-05-13T15:23:53.165Z,6.33
2023-05-13T15:28:54.567Z,6.90
2023-05-13T15:33:55.982Z,6.73
2023-05-13T15:38:57.432Z,6.53
2023-05-13T15:43:58.848Z,7.43
2023-05-13T15:49:00.471Z,9.07
2023-05-13T15:54:01.933Z,9.23
2023-05-13T15:59:03.333Z,7.57
2023-05-13T16:04:04.816Z,6.97
2023-05-13T16:09:06.272Z,9.30
2023-05-13T16:14:07.783Z,8.43
2023-05-13T16:19:09.303Z,5.90
2023-05-13T16:24:10.727Z,7.60
2023-05-13T16:29:12.123Z,7.70
2023-05-13T16:34:13.536Z,7.80
2023-05-13T16:39:14.958Z,7.20
2023-05-13T16:44:16.354Z,8.00
2023-05-13T16:49:17.834Z,7.50
2023-05-13T16:54:19.357Z,7.03
2023-05-13T16:59:20.759Z,7.30
2023-05-13T17:04:22.156Z,7.10
2023-05-13T17:09:23.569Z,6.30
2023-05-13T17:14:24.976Z,6.10
2023-05-13T17:19:26.381Z,5.77
2023-05-13T17:24:27.777Z,6.10
2023-05-13T17:29:29.169Z,6.33
2023-05-13T17:34:30.569Z,5.33
2023-05-13T17:39:31.986Z,5.20
2023-05-13T17:44:33.373Z,7.47
2023-05-13T17:49:34.772Z,6.17
2023-05-13T17:54:36.169Z,6.43
2023-05-13T17:59:37.574Z,6.53
2023-05-13T18:04:38.985Z,6.93
2023-05-13T18:09:40.386Z,8.23
2023-05-13T18:14:41.777Z,8.00
2023-05-13T18:19:43.186Z,8.90
2023-05-13T18:24:44.612Z,9.07
2023-05-13T18:29:46.163Z,11.43
2023-05-13T18:34:47.588Z,11.50
2023-05-13T18:39:48.998Z,12.07
2023-05-13T18:44:50.409Z,10.80
2023-05-13T18:49:51.813Z,10.90
2023-05-13T18:54:53.222Z,10.53
2023-05-13T18:59:54.617Z,10.20
2023-05-13T19:04:56.066Z,9.80
2023-05-13T19:09:57.481Z,8.87
2023-05-13T19:14:58.890Z,9.13
2023-05-13T19:20:00.459Z,9.10
2023-05-13T19:25:01.948Z,10.30
2023-05-13T19:30:03.336Z,8.37
2023-05-13T19:35:05.055Z,9.10
2023-05-13T19:40:06.465Z,10.00
2023-05-13T19:45:07.903Z,8.70
2023-05-13T19:50:09.372Z,7.67
2023-05-13T19:55:10.787Z,9.07
2023-05-13T20:00:12.210Z,8.93
2023-05-13T20:05:13.618Z,9.37
2023-05-13T20:10:15.008Z,8.83
2023-05-13T20:15:18.471Z,9.20
2023-05-13T20:20:20.156Z,9.83
2023-05-13T20:25:21.595Z,9.13
2023-05-13T20:30:23.041Z,9.40
2023-05-13T20:35:24.597Z,9.10
2023-05-13T20:40:26.034Z,9.33
2023-05-13T20:45:27.446Z,8.63
2023-05-13T20:50:28.860Z,9.77
2023-05-13T20:55:30.259Z,9.53
2023-05-13T21:00:31.645Z,8.47
2023-05-13T21:05:33.054Z,10.07
2023-05-13T21:10:34.459Z,10.10
2023-05-13T21:15:35.908Z,8.80
2023-05-13T21:20:37.321Z,9.70
2023-05-13T21:25:38.711Z,8.27
2023-05-13T21:30:40.118Z,10.03
2023-05-13T21:35:41.516Z,9.70
2023-05-13T21:40:42.925Z,8.87
2023-05-13T21:45:44.331Z,8.70
2023-05-13T21:50:45.725Z,9.10
2023-05-13T21:55:47.116Z,9.77
2023-05-13T22:00:48.572Z,8.17
2023-05-13T22:05:49.977Z,9.20
2023-05-13T22:10:51.379Z,9.13
2023-05-13T22:15:52.838Z,8.77
2023-05-13T22:20:54.263Z,9.20
2023-05-13T22:25:55.662Z,9.23
2023-05-13T22:30:57.088Z,8.50
2023-05-13T22:35:58.490Z,8.63
2023-05-13T22:40:59.888Z,8.23
2023-05-13T22:46:01.311Z,8.93
2023-05-13T22:51:02.725Z,9.30
2023-05-13T22:56:04.130Z,9.37
2023-05-13T23:01:05.538Z,9.33
2023-05-13T23:06:06.959Z,9.63
2023-05-13T23:11:08.380Z,10.63
2023-05-13T23:16:09.829Z,8.80
2023-05-13T23:21:11.231Z,10.07
2023-05-13T23:26:12.631Z,9.53
2023-05-13T23:31:14.070Z,8.93
2023-05-13T23:36:15.490Z,9.70
2023-05-13T23:41:16.896Z,9.70
2023-05-13T23:46:18.399Z,10.37
2023-05-13T23:51:19.874Z,9.70
2023-05-13T23:56:21.283Z,9.70
